createdAt,value
2023-04-05T04:52:55.173Z,98259.92
2023-04-05T04:55:33.539Z,98255.73
2023-04-05T04:58:10.381Z,98265.31
2023-04-05T05:00:44.789Z,98267.02
2023-04-05T05:03:14.743Z,98263.25
2023-04-05T05:05:45.524Z,98256.27
2023-04-05T05:09:31.502Z,98260.60
2023-04-05T05:12:01.879Z,98261.66
2023-04-05T05:14:30.881Z,98256.59
2023-04-05T05:16:59.528Z,98257.70
2023-04-05T05:19:32.031Z,98259.38
2023-04-05T05:22:01.492Z,98255.58
2023-04-05T05:24:31.144Z,98251.23
2023-04-05T05:26:59.619Z,98251.83
2023-04-05T05:34:48.803Z,98252.07
2023-04-05T05:37:18.545Z,98254.95
2023-04-05T05:39:47.801Z,98251.82
2023-04-05T05:42:16.411Z,98246.52
2023-04-05T05:44:45.339Z,98239.59
2023-04-05T05:47:13.741Z,98238.52
2023-04-05T05:49:42.642Z,98234.39
2023-04-05T05:52:32.763Z,98232.31
2023-04-05T05:55:01.009Z,98229.39
2023-04-05T05:57:29.902Z,98225.11
2023-04-05T06:00:01.365Z,98226.91
2023-04-05T06:02:42.716Z,98225.06
2023-04-05T06:11:56.961Z,98216.20
2023-04-05T06:14:25.310Z,98210.86
2023-04-05T06:16:52.864Z,98211.65
2023-04-05T06:19:20.490Z,98209.95
2023-04-05T06:21:47.376Z,98200.90
2023-04-05T06:24:15.444Z,98201.19
2023-04-05T06:27:07.617Z,98202.73
2023-04-05T06:29:34.576Z,98200.04
2023-04-05T06:32:28.524Z,98199.60
2023-04-05T06:34:56.966Z,98198.25
2023-04-05T06:59:10.150Z,98215.80
2023-04-05T07:01:40.387Z,98221.59
2023-04-05T07:04:13.446Z,98220.07
2023-04-05T07:06:41.810Z,98222.37
2023-04-05T07:09:12.957Z,98224.83
2023-04-05T07:11:42.587Z,98226.44
2023-04-05T07:14:15.380Z,98223.95
2023-04-05T07:16:52.620Z,98226.13
2023-04-05T07:19:26.374Z,98226.04
2023-04-05T07:21:56.386Z,98227.35
2023-04-05T07:24:26.152Z,98226.22
2023-04-05T07:26:54.637Z,98228.01
2023-04-05T07:29:24.843Z,98231.27
2023-04-05T07:31:53.437Z,98229.73
2023-04-05T07:34:24.740Z,98231.64
2023-04-05T07:36:53.577Z,98234.72
2023-04-05T07:39:22.400Z,98231.08
2023-04-05T07:42:00.171Z,98232.45
2023-04-05T07:44:28.897Z,98230.95
2023-04-05T08:06:58.206Z,98211.83
2023-04-05T08:09:26.597Z,98204.20
2023-04-05T08:11:57.444Z,98204.15
2023-04-05T08:14:25.997Z,98202.77
2023-04-05T08:16:56.508Z,98195.81
2023-04-05T08:19:28.692Z,98192.02
2023-04-05T08:21:57.471Z,98189.52
2023-04-05T08:24:29.087Z,98189.52
2023-04-05T08:27:00.015Z,98187.56
2023-04-05T08:29:33.086Z,98192.33
2023-04-05T08:32:01.880Z,98190.52
2023-04-05T08:34:31.191Z,98187.88
2023-04-05T09:06:32.971Z,98221.88
2023-04-05T09:09:01.761Z,98227.02
2023-04-05T09:11:30.510Z,98226.36
2023-04-05T09:13:58.846Z,98221.00
2023-04-05T09:16:27.610Z,98220.40
2023-04-05T09:19:21.522Z,98217.17
2023-04-05T09:22:11.732Z,98211.66
2023-04-05T09:24:44.038Z,98209.98
2023-04-05T09:27:13.927Z,98208.91
2023-04-05T09:29:44.515Z,98213.00
2023-04-05T09:32:13.511Z,98207.96
2023-04-05T09:34:42.318Z,98202.62
2023-04-05T09:37:19.746Z,98195.91
2023-04-05T09:39:50.835Z,98193.77
2023-04-05T09:42:20.099Z,98191.22
2023-04-05T09:45:03.125Z,98185.67
2023-04-05T09:47:36.755Z,98184.27
2023-04-05T09:50:14.560Z,98187.10
2023-04-05T10:21:34.406Z,98207.58
2023-04-05T10:24:37.019Z,98213.84
2023-04-05T10:27:12.511Z,98211.34
2023-04-05T10:30:06.570Z,98212.93
2023-04-05T10:32:43.383Z,98212.75
2023-04-05T10:35:27.126Z,98212.39
2023-04-05T10:38:18.921Z,98208.96
2023-04-05T10:40:48.777Z,98206.30
2023-04-05T10:43:21.820Z,98200.90
2023-04-05T10:45:52.932Z,98201.96
2023-04-05T10:48:36.402Z,98195.76
2023-04-05T10:51:06.434Z,98198.48
2023-04-05T10:53:36.144Z,98195.90
2023-04-05T11:09:37.451Z,98188.34
2023-04-05T11:12:06.316Z,98194.67
2023-04-05T11:14:36.366Z,98190.40
2023-04-05T11:17:04.704Z,98193.91
2023-04-05T11:19:42.666Z,98199.17
2023-04-05T11:22:11.598Z,98214.91
2023-04-05T11:24:53.488Z,98213.97
2023-04-05T11:27:45.384Z,98223.14
2023-04-05T11:30:16.323Z,98219.17
2023-04-05T11:32:45.580Z,98212.17
2023-04-05T12:09:19.842Z,98213.95
2023-04-05T12:11:51.769Z,98192.98
2023-04-05T12:14:20.732Z,98183.36
2023-04-05T12:16:50.588Z,98188.27
2023-04-05T12:19:19.762Z,98196.54
2023-04-05T12:21:50.810Z,98203.45
2023-04-05T12:24:19.731Z,98199.88
2023-04-05T12:26:48.114Z,98193.02
2023-04-05T12:29:16.692Z,98193.59
2023-04-05T12:31:47.270Z,98193.77
2023-04-05T12:34:15.862Z,98193.76
2023-04-05T12:36:46.612Z,98188.52
2023-04-05T12:39:15.935Z,98183.35
2023-04-05T12:41:44.652Z,98179.33
2023-04-05T12:44:16.421Z,98182.27
2023-04-05T12:46:46.018Z,98182.84
2023-04-05T12:49:18.261Z,98182.00
2023-04-05T12:51:47.420Z,98185.83
2023-04-05T12:54:24.032Z,98183.38
2023-04-05T12:56:56.109Z,98180.17
2023-04-05T12:59:24.940Z,98174.67
2023-04-05T13:01:53.978Z,98172.75
2023-04-05T13:04:23.469Z,98176.13
2023-04-05T13:06:55.868Z,98172.43
2023-04-05T13:09:24.359Z,98170.05
2023-04-05T13:11:52.967Z,98168.66
2023-04-05T13:14:22.631Z,98166.59
2023-04-05T13:16:53.916Z,98168.55
2023-04-05T13:19:23.787Z,98167.48
2023-04-05T13:21:54.956Z,98163.49
2023-04-05T13:24:23.761Z,98162.25
2023-04-05T13:26:51.935Z,98163.83
2023-04-05T13:29:21.094Z,98164.44
2023-04-05T13:31:49.713Z,98159.95
2023-04-05T13:34:21.383Z,98160.95
2023-04-05T13:36:50.065Z,98159.02
2023-04-05T13:39:18.593Z,98159.05
2023-04-05T13:41:47.188Z,98156.69
2023-04-05T13:44:15.973Z,98158.52
2023-04-05T13:46:44.550Z,98163.95
2023-04-05T13:49:13.147Z,98160.45
2023-04-05T13:51:44.612Z,98160.19
2023-04-05T14:00:50.913Z,98147.16
2023-04-05T14:03:21.523Z,98147.88
2023-04-05T14:05:55.271Z,98149.80
2023-04-05T14:08:24.136Z,98148.76
2023-04-05T14:10:59.058Z,98145.33
2023-04-05T14:13:29.278Z,98145.32
2023-04-05T14:15:57.620Z,98142.56
2023-04-05T14:18:28.998Z,98138.85
2023-04-05T14:21:16.321Z,98141.52
2023-04-05T14:23:47.830Z,98140.43
2023-04-05T14:26:17.308Z,98148.92
2023-04-05T14:28:45.664Z,98143.76
2023-04-05T14:31:19.622Z,98143.21
2023-04-05T14:33:49.173Z,98132.00
2023-04-05T14:36:17.724Z,98129.59
2023-04-05T14:38:46.982Z,98133.27
2023-04-05T14:41:15.632Z,98133.69
2023-04-05T14:43:46.786Z,98132.35
2023-04-05T14:46:15.814Z,98129.94
2023-04-05T14:48:44.275Z,98127.55
2023-04-05T14:51:13.368Z,98132.54
2023-04-05T14:53:50.235Z,98133.89
2023-04-05T14:56:20.474Z,98134.22
2023-04-05T14:58:49.123Z,98142.13
2023-04-05T15:01:17.356Z,98144.42
2023-04-05T15:03:48.547Z,98144.29
2023-04-05T15:06:17.028Z,98135.83
2023-04-05T15:08:45.432Z,98138.22
2023-04-05T15:11:13.792Z,98142.47
2023-04-05T15:13:42.625Z,98152.45
2023-04-05T15:16:11.773Z,98155.25
2023-04-05T15:18:42.299Z,98165.94
2023-04-05T15:21:11.248Z,98177.44
2023-04-05T15:23:40.936Z,98175.20
2023-04-05T15:26:09.386Z,98175.89
2023-04-05T15:28:40.954Z,98177.84
2023-04-05T15:31:10.489Z,98170.21
2023-04-05T15:33:39.453Z,98160.45
2023-04-05T15:36:14.570Z,98151.12
2023-04-05T15:38:46.331Z,98138.92
2023-04-05T15:41:14.826Z,98139.35
2023-04-05T15:43:47.126Z,98127.21
2023-04-05T15:46:15.871Z,98122.56
2023-04-05T15:48:44.283Z,98115.16
2023-04-05T15:51:15.924Z,98113.50
2023-04-05T15:53:44.575Z,98105.65
2023-04-05T15:56:13.788Z,98080.54
2023-04-05T15:58:42.157Z,98060.39
2023-04-05T16:01:10.407Z,98061.30
2023-04-05T16:03:40.823Z,98073.43
2023-04-05T16:06:09.574Z,98077.11
2023-04-05T16:08:41.197Z,98081.40
2023-04-05T16:11:12.988Z,98087.73
2023-04-05T16:13:51.495Z,98093.96
2023-04-05T16:16:32.011Z,98114.48
2023-04-05T16:19:04.011Z,98132.99
2023-04-05T16:21:36.272Z,98136.09
2023-04-05T16:24:05.796Z,98137.02
2023-04-05T16:26:34.758Z,98137.98
2023-04-05T16:29:03.410Z,98132.12
2023-04-05T16:31:32.667Z,98130.30
2023-04-05T16:34:01.333Z,98137.64
2023-04-05T16:36:32.887Z,98139.50
2023-04-05T16:39:02.374Z,98138.02
2023-04-05T16:41:32.418Z,98137.30
2023-04-05T16:44:04.775Z,98141.34
2023-04-05T16:46:33.801Z,98144.14
2023-04-05T16:49:02.667Z,98145.02
2023-04-05T16:51:32.981Z,98134.23
2023-04-05T16:54:03.291Z,98132.01
2023-04-05T16:56:31.748Z,98131.45
2023-04-05T16:59:01.696Z,98126.30
2023-04-05T17:01:34.601Z,98122.50
2023-04-05T17:04:04.819Z,98123.97
2023-04-05T17:06:34.309Z,98126.37
2023-04-05T17:09:03.490Z,98119.89
2023-04-05T17:11:32.630Z,98117.84
2023-04-05T17:14:01.389Z,98116.40
2023-04-05T17:16:29.843Z,98120.03
2023-04-05T17:18:58.469Z,98120.41
2023-04-05T17:21:29.612Z,98118.99
2023-04-05T17:23:58.688Z,98113.93
2023-04-05T17:26:27.411Z,98107.83
2023-04-05T17:28:55.959Z,98106.77
2023-04-05T17:31:24.798Z,98106.22
2023-04-05T17:33:56.723Z,98109.55
2023-04-05T17:36:28.461Z,98111.17
2023-04-05T17:38:56.642Z,98109.54
2023-04-05T17:41:25.129Z,98113.69
2023-04-05T17:43:56.786Z,98111.25
2023-04-05T17:46:39.616Z,98108.09
2023-04-05T17:49:09.738Z,98101.48
2023-04-05T17:51:42.128Z,98102.33
2023-04-05T17:54:12.504Z,98099.23
2023-04-05T17:56:41.185Z,98098.90
2023-04-05T17:59:10.065Z,98100.62
2023-04-05T18:01:39.596Z,98102.95
2023-04-05T18:04:10.267Z,98108.21
2023-04-05T18:06:40.862Z,98108.25
2023-04-05T18:16:52.798Z,98104.71
2023-04-05T18:19:21.795Z,98098.09
2023-04-05T18:21:50.576Z,98094.69
2023-04-05T18:24:18.800Z,98093.56
2023-04-05T18:26:47.463Z,98091.06
2023-04-05T18:29:15.928Z,98090.77
2023-04-05T18:31:44.367Z,98088.61
2023-04-05T18:34:13.074Z,98089.48
2023-04-05T18:36:46.680Z,98083.21
2023-04-05T18:39:16.929Z,98079.59
2023-04-05T18:41:45.342Z,98077.09
2023-04-05T18:44:13.883Z,98076.98
2023-04-05T18:46:45.611Z,98071.15
2023-04-05T18:49:16.158Z,98071.17
2023-04-05T18:51:45.663Z,98071.38
2023-04-05T18:54:18.746Z,98073.02
2023-04-05T18:56:47.624Z,98069.17
2023-04-05T18:59:17.465Z,98069.11
2023-04-05T19:01:46.135Z,98075.16
2023-04-05T19:04:16.454Z,98075.27
2023-04-05T19:06:44.822Z,98077.48
2023-04-05T19:09:13.319Z,98080.46
2023-04-05T19:11:44.508Z,98075.23
2023-04-05T19:14:14.169Z,98073.41
2023-04-05T19:16:42.690Z,98071.38
2023-04-05T19:19:11.323Z,98072.61
2023-04-05T19:21:45.414Z,98077.84
2023-04-05T19:24:15.065Z,98084.36
2023-04-05T19:26:43.514Z,98082.44
2023-04-05T19:29:12.503Z,98081.31
2023-04-05T19:31:41.703Z,98080.77
2023-04-05T19:34:10.526Z,98078.36
2023-04-05T19:36:40.042Z,98070.33
2023-04-05T19:39:12.024Z,98065.70
2023-04-05T19:41:40.456Z,98059.22
2023-04-05T19:44:13.167Z,98055.95
2023-04-05T19:46:41.548Z,98055.37
2023-04-05T19:49:11.133Z,98054.60
2023-04-05T19:51:39.378Z,98050.88
2023-04-05T19:54:09.528Z,98048.30
2023-04-05T19:56:39.080Z,98044.34
2023-04-05T19:59:10.364Z,98040.30
2023-04-05T21:05:09.150Z,97923.73
2023-04-05T21:21:24.782Z,97923.48
2023-04-05T23:39:48.010Z,97739.51
